Main page
METAR-TAF:

METAR-TAF

Airports :

Oil platform

Hoorn-a, Netherlands

latitude: 52-55-05N, longitude: 4-09-01E, elevation: 41 m

Current weather observation

The report was made 26 minutes ago, at 13:55 UTC
Wind 26 kt from the Northeast
Temperature 14°C
Humidity 82%
Pressure 1008 hPa
Visibility 10 km or more

METAR: EHQE 141355Z AUTO 05026KT 9999 ////// 14/11 Q1008 W///H///

Time: 16:21 (14:21 UTC)


TAF: missing

Weather observations and forecasts of more than 4000 airports (METAR and TAF reports).

The available stations are represented by yellow and red dots on the map.

Hover mouse over dot to see the name of the station.

Then click to see weather observations and forecasts.

To change the map : click on the green buttons with a black cross to zoom in, on the green button with a dash to zoom out, or on the green arrows for adjacent maps.


METAR-TAF: